Time;durP1;ratioP1;P1;durP2;ratioP2;P2;SDS_P1;SDS_P2;PMS_P1;PMS_P2;Temp;Humidity;BMP_temperature;BMP_pressure;BME280_temperature;BME280_humidity;BME280_pressure;Samples;Min_cycle;Max_cycle;Signal;HPM_P1;HPM_P2
2024/02/11 00:01:58;;;;;;;18.92;13.25;;;9.70;99.90;;;;;;5024652;28;20041;-68
2024/02/11 00:04:24;;;;;;;19.38;14.23;;;9.80;99.90;;;;;;5050090;28;20094;-64
2024/02/11 00:06:50;;;;;;;21.33;14.43;;;9.80;99.90;;;;;;5049010;28;20029;-65
2024/02/11 00:09:17;;;;;;;22.10;14.68;;;9.70;99.90;;;;;;5049677;28;20045;-66
2024/02/11 00:11:44;;;;;;;18.55;14.27;;;9.70;99.90;;;;;;5050836;28;20037;-67
2024/02/11 00:14:10;;;;;;;19.10;14.13;;;9.80;99.90;;;;;;5049987;28;20524;-67
2024/02/11 00:16:36;;;;;;;19.48;14.25;;;9.70;99.90;;;;;;5048264;28;20079;-65
2024/02/11 00:19:01;;;;;;;19.08;14.13;;;9.70;99.90;;;;;;5050806;28;20508;-67
2024/02/11 00:21:27;;;;;;;19.27;14.82;;;9.60;99.90;;;;;;5045786;28;20489;-67
2024/02/11 00:23:53;;;;;;;20.77;15.32;;;9.80;99.90;;;;;;5050683;28;20036;-67
2024/02/11 00:26:18;;;;;;;23.27;15.43;;;9.80;99.90;;;;;;5050408;28;20116;-65
2024/02/11 00:28:44;;;;;;;24.05;15.90;;;9.80;99.90;;;;;;5049032;28;20049;-67
2024/02/11 00:31:09;;;;;;;28.95;17.65;;;9.80;99.90;;;;;;5049681;28;20120;-68
2024/02/11 00:33:35;;;;;;;25.90;18.27;;;9.80;99.90;;;;;;5050549;28;20079;-67
2024/02/11 00:36:01;;;;;;;25.33;19.05;;;9.80;99.90;;;;;;5049610;28;20425;-67
2024/02/11 00:38:27;;;;;;;26.85;18.88;;;9.80;99.90;;;;;;5044847;28;20496;-67
2024/02/11 00:40:53;;;;;;;26.95;19.45;;;9.80;99.90;;;;;;5050684;28;20071;-65
2024/02/11 00:43:19;;;;;;;28.08;20.17;;;9.80;99.90;;;;;;5050042;28;20080;-67
2024/02/11 00:45:45;;;;;;;28.77;20.45;;;9.80;99.90;;;;;;5029914;28;20488;-65
2024/02/11 00:48:10;;;;;;;28.30;20.77;;;9.80;99.90;;;;;;5043388;28;20056;-68
2024/02/11 00:50:36;;;;;;;30.55;21.42;;;9.90;99.90;;;;;;5049261;28;20037;-68
2024/02/11 00:53:04;;;;;;;31.20;20.95;;;9.80;99.90;;;;;;5050460;28;20041;-67
2024/02/11 00:55:31;;;;;;;30.23;22.05;;;9.90;99.90;;;;;;5049706;28;20216;-67
2024/02/11 00:57:56;;;;;;;33.15;22.55;;;9.80;99.90;;;;;;5050067;28;20044;-67
2024/02/11 01:00:22;;;;;;;35.17;23.90;;;9.90;99.90;;;;;;5048861;28;20043;-68
2024/02/11 01:02:48;;;;;;;35.00;23.20;;;9.90;99.90;;;;;;5049759;28;20115;-67
2024/02/11 01:05:15;;;;;;;33.50;23.45;;;9.90;99.90;;;;;;5046933;28;20044;-67
2024/02/11 01:07:41;;;;;;;34.03;23.42;;;9.90;99.90;;;;;;5049540;28;20057;-67
2024/02/11 01:10:11;;;;;;;33.88;23.15;;;9.90;99.90;;;;;;5050360;28;20503;-68
2024/02/11 01:12:41;;;;;;;35.08;23.25;;;9.90;99.90;;;;;;5049829;28;20032;-68
2024/02/11 01:15:07;;;;;;;34.72;23.55;;;9.90;99.90;;;;;;5049888;28;20036;-67
2024/02/11 01:17:34;;;;;;;34.40;23.63;;;9.90;99.90;;;;;;5039360;28;20041;-67
2024/02/11 01:19:59;;;;;;;36.88;24.27;;;9.90;99.90;;;;;;5048813;28;20112;-67
2024/02/11 01:22:25;;;;;;;34.53;24.25;;;9.90;99.90;;;;;;5047289;28;20045;-67
2024/02/11 01:24:51;;;;;;;36.63;24.70;;;9.90;99.90;;;;;;5049749;28;20040;-67
2024/02/11 01:27:16;;;;;;;34.50;24.35;;;9.90;99.90;;;;;;5049158;28;20517;-67
2024/02/11 01:29:42;;;;;;;36.80;24.73;;;9.90;99.90;;;;;;5049302;28;20400;-65
2024/02/11 01:32:09;;;;;;;35.72;24.98;;;9.90;99.90;;;;;;5049793;28;20029;-68
2024/02/11 01:34:35;;;;;;;39.35;24.55;;;9.90;99.90;;;;;;5049221;28;20041;-67
2024/02/11 01:37:01;;;;;;;38.00;24.70;;;9.90;99.90;;;;;;5049549;28;20501;-67
2024/02/11 01:39:27;;;;;;;37.70;24.48;;;9.90;99.90;;;;;;5045807;28;20047;-67
2024/02/11 01:41:52;;;;;;;37.28;24.73;;;9.90;99.90;;;;;;5049584;28;20037;-66
2024/02/11 01:44:18;;;;;;;39.35;26.75;;;9.90;99.90;;;;;;5048336;28;20081;-67
2024/02/11 01:46:45;;;;;;;39.50;25.83;;;9.90;99.90;;;;;;5046399;28;20079;-67
2024/02/11 01:49:11;;;;;;;35.63;24.90;;;9.90;99.90;;;;;;5042529;28;20049;-67
2024/02/11 01:51:44;;;;;;;36.67;26.08;;;9.90;99.90;;;;;;5048914;28;20110;-65
2024/02/11 01:54:14;;;;;;;40.78;26.17;;;9.90;99.90;;;;;;5049037;28;20462;-67
2024/02/11 01:56:40;;;;;;;41.28;26.33;;;9.90;99.90;;;;;;5041966;28;20508;-68
2024/02/11 01:59:06;;;;;;;38.92;25.83;;;9.90;99.90;;;;;;5039242;28;20064;-68
2024/02/11 02:01:33;;;;;;;44.63;27.52;;;9.90;99.90;;;;;;5048008;28;20049;-67
2024/02/11 02:03:59;;;;;;;43.05;27.67;;;9.90;99.90;;;;;;5047567;28;20121;-68
2024/02/11 02:06:25;;;;;;;40.75;26.13;;;9.90;99.90;;;;;;5049301;28;20685;-68
2024/02/11 02:08:52;;;;;;;41.17;26.98;;;9.80;99.90;;;;;;5047930;28;20076;-68
2024/02/11 02:11:18;;;;;;;40.42;26.60;;;9.80;99.90;;;;;;5043335;28;20037;-68
2024/02/11 02:13:44;;;;;;;43.03;27.17;;;9.80;99.90;;;;;;5045301;28;20037;-67
2024/02/11 02:16:10;;;;;;;39.92;26.35;;;9.90;99.90;;;;;;5046711;28;20063;-67
2024/02/11 02:18:36;;;;;;;43.00;28.08;;;9.90;99.90;;;;;;5047316;28;20517;-67
2024/02/11 02:21:04;;;;;;;40.20;26.55;;;9.90;99.90;;;;;;5022411;28;20059;-65
2024/02/11 02:23:30;;;;;;;40.65;26.70;;;9.80;99.90;;;;;;5048297;28;20044;-67
2024/02/11 02:25:57;;;;;;;40.25;27.17;;;9.90;99.90;;;;;;5048470;28;20566;-67
2024/02/11 02:28:23;;;;;;;41.03;27.35;;;9.90;99.90;;;;;;5044741;28;20049;-67
2024/02/11 02:30:49;;;;;;;44.22;27.67;;;9.90;99.90;;;;;;5047984;28;20087;-68
2024/02/11 02:33:15;;;;;;;40.38;26.20;;;9.90;99.90;;;;;;5051416;28;20455;-68
2024/02/11 02:35:41;;;;;;;42.47;27.77;;;9.90;99.90;;;;;;5051291;28;20087;-67
2024/02/11 02:38:06;;;;;;;45.28;27.45;;;9.90;99.90;;;;;;5048938;28;20087;-68
2024/02/11 02:40:32;;;;;;;42.25;26.75;;;9.90;99.90;;;;;;5046949;28;20041;-66
2024/02/11 02:42:58;;;;;;;42.30;27.25;;;9.90;99.90;;;;;;5049871;28;20662;-68
2024/02/11 02:45:24;;;;;;;40.78;27.65;;;9.90;99.90;;;;;;5050504;28;20045;-65
2024/02/11 02:47:49;;;;;;;42.97;27.00;;;9.90;99.90;;;;;;5048679;28;20040;-68
2024/02/11 02:50:15;;;;;;;46.45;26.80;;;9.90;99.90;;;;;;5052282;28;20083;-68
2024/02/11 02:52:44;;;;;;;39.60;26.08;;;9.80;99.90;;;;;;5050519;28;20045;-68
2024/02/11 02:55:10;;;;;;;42.38;26.13;;;9.90;99.90;;;;;;5048827;28;20123;-68
2024/02/11 02:57:35;;;;;;;42.70;25.90;;;9.90;99.90;;;;;;5050521;28;20120;-68
2024/02/11 03:00:08;;;;;;;39.60;24.92;;;9.80;99.90;;;;;;5049532;28;20136;-68
2024/02/11 03:02:34;;;;;;;40.78;25.80;;;9.90;99.90;;;;;;5050998;28;20045;-68
2024/02/11 03:05:02;;;;;;;40.15;25.52;;;9.80;99.90;;;;;;5049815;28;20052;-68
2024/02/11 03:07:27;;;;;;;43.05;25.38;;;9.80;99.90;;;;;;5049543;28;20504;-68
2024/02/11 03:09:53;;;;;;;41.08;25.05;;;9.80;99.90;;;;;;5050228;28;20045;-67
2024/02/11 03:12:19;;;;;;;44.55;24.88;;;9.80;99.90;;;;;;5048123;28;20029;-65
2024/02/11 03:14:44;;;;;;;38.22;23.45;;;9.80;99.90;;;;;;5050197;28;20127;-68
2024/02/11 03:17:11;;;;;;;40.95;24.33;;;9.90;99.90;;;;;;5033764;28;20072;-68
2024/02/11 03:19:36;;;;;;;45.30;25.30;;;10.00;99.90;;;;;;5048685;28;20486;-68
2024/02/11 03:22:02;;;;;;;43.95;24.92;;;9.80;99.90;;;;;;5050310;28;20037;-67
2024/02/11 03:24:28;;;;;;;39.53;24.55;;;9.90;99.90;;;;;;5049031;28;20049;-65
2024/02/11 03:26:54;;;;;;;43.92;23.20;;;9.80;99.90;;;;;;5049456;28;20045;-68
2024/02/11 03:29:20;;;;;;;43.00;23.67;;;9.80;99.90;;;;;;5047702;28;20091;-68
2024/02/11 03:31:46;;;;;;;40.67;24.83;;;9.80;99.90;;;;;;5042960;28;20033;-66
2024/02/11 03:34:11;;;;;;;38.33;23.83;;;9.80;99.90;;;;;;5050719;28;20549;-64
2024/02/11 03:36:38;;;;;;;40.33;23.55;;;9.80;99.90;;;;;;5050061;28;20040;-68
2024/02/11 03:39:09;;;;;;;42.65;24.63;;;9.80;99.90;;;;;;5050502;28;20037;-68
2024/02/11 03:41:35;;;;;;;39.40;22.73;;;9.80;99.90;;;;;;5046763;28;20043;-68
2024/02/11 03:44:01;;;;;;;42.60;24.05;;;9.80;99.90;;;;;;5046956;28;20037;-68
2024/02/11 03:46:27;;;;;;;42.63;23.23;;;9.80;99.90;;;;;;5062792;28;20464;-68
2024/02/11 03:48:56;;;;;;;40.92;24.38;;;9.80;99.90;;;;;;5049969;28;20408;-68
2024/02/11 03:51:23;;;;;;;43.90;23.73;;;9.80;99.90;;;;;;5051366;28;20408;-65
2024/02/11 03:53:50;;;;;;;42.42;24.35;;;9.80;99.90;;;;;;5049668;28;20063;-68
2024/02/11 03:56:18;;;;;;;42.53;23.52;;;9.80;99.90;;;;;;5043422;28;20037;-68
2024/02/11 03:58:43;;;;;;;37.50;21.85;;;9.80;99.90;;;;;;5042252;28;20041;-68
2024/02/11 04:01:09;;;;;;;41.53;23.00;;;9.80;99.90;;;;;;5049806;28;20041;-68
2024/02/11 04:03:39;;;;;;;43.40;23.63;;;9.80;99.90;;;;;;5051043;28;20500;-68
2024/02/11 04:06:04;;;;;;;45.90;23.92;;;9.80;99.90;;;;;;5047475;28;20583;-66
2024/02/11 04:08:30;;;;;;;43.25;24.35;;;9.80;99.90;;;;;;5048890;28;20056;-68
2024/02/11 04:10:56;;;;;;;44.80;22.80;;;9.80;99.90;;;;;;5045133;28;20037;-68
2024/02/11 04:13:24;;;;;;;43.35;23.15;;;9.80;99.90;;;;;;5051181;28;20094;-68
2024/02/11 04:15:56;;;;;;;44.13;24.00;;;9.80;99.90;;;;;;5051431;28;20037;-68
2024/02/11 04:18:25;;;;;;;42.83;22.58;;;9.90;99.90;;;;;;5048044;28;20044;-67
2024/02/11 04:20:54;;;;;;;44.88;23.15;;;9.80;99.90;;;;;;5051072;28;20423;-66
2024/02/11 04:23:20;;;;;;;45.70;23.17;;;9.80;99.90;;;;;;5050603;28;20112;-68
2024/02/11 04:25:46;;;;;;;44.05;22.15;;;9.80;99.90;;;;;;5051062;28;20119;-68
2024/02/11 04:28:11;;;;;;;46.40;22.20;;;9.80;99.90;;;;;;5054738;28;20052;-67
2024/02/11 04:30:38;;;;;;;45.08;23.08;;;9.80;99.90;;;;;;5056364;28;20068;-68
2024/02/11 04:33:07;;;;;;;42.85;23.05;;;9.70;99.90;;;;;;5046778;28;20044;-68
2024/02/11 04:35:35;;;;;;;45.53;22.77;;;9.70;99.90;;;;;;5055437;28;20048;-68
2024/02/11 04:38:07;;;;;;;44.85;24.02;;;9.70;99.90;;;;;;5044370;28;20053;-68
2024/02/11 04:40:34;;;;;;;46.67;22.50;;;9.80;99.90;;;;;;5049955;28;20125;-68
2024/02/11 04:43:00;;;;;;;43.13;21.95;;;9.70;99.90;;;;;;5047993;28;20037;-67
2024/02/11 04:45:26;;;;;;;46.67;24.80;;;9.70;99.90;;;;;;5056958;28;20103;-68
2024/02/11 04:47:59;;;;;;;48.53;23.08;;;9.70;99.90;;;;;;5047526;28;20033;-65
2024/02/11 04:50:26;;;;;;;46.70;24.10;;;9.70;99.90;;;;;;5045340;28;20059;-68
2024/02/11 04:52:58;;;;;;;50.03;23.85;;;9.80;99.90;;;;;;5040410;28;20041;-67
2024/02/11 04:55:28;;;;;;;44.65;24.40;;;9.80;99.90;;;;;;5044142;28;20044;-68
2024/02/11 04:57:58;;;;;;;51.08;25.23;;;9.40;99.90;;;;;;5039107;28;20385;-68
2024/02/11 05:00:33;;;;;;;49.47;25.13;;;9.70;99.90;;;;;;5048041;28;20047;-64
2024/02/11 05:03:03;;;;;;;45.75;24.48;;;9.80;99.90;;;;;;5040582;28;20055;-68
2024/02/11 05:05:30;;;;;;;55.10;25.48;;;9.70;99.90;;;;;;5050073;28;20037;-67
2024/02/11 05:08:04;;;;;;;45.40;25.45;;;9.80;99.90;;;;;;5049716;28;20065;-65
2024/02/11 05:10:34;;;;;;;54.65;25.90;;;9.80;99.90;;;;;;5055244;28;20377;-68
2024/02/11 05:13:04;;;;;;;52.63;26.20;;;9.70;99.90;;;;;;5044060;28;20041;-68
2024/02/11 05:15:34;;;;;;;51.58;25.92;;;9.80;99.90;;;;;;5045194;28;20378;-68
2024/02/11 05:18:00;;;;;;;54.65;27.17;;;9.80;99.90;;;;;;5042413;28;20491;-68
2024/02/11 05:20:28;;;;;;;49.65;25.83;;;9.80;99.90;;;;;;5046698;28;20090;-68
2024/02/11 05:22:56;;;;;;;53.22;25.10;;;9.80;99.90;;;;;;5049216;28;20048;-68
2024/02/11 05:25:27;;;;;;;55.35;26.63;;;9.70;99.90;;;;;;5050167;28;20052;-68
2024/02/11 05:27:59;;;;;;;53.00;26.13;;;9.80;99.90;;;;;;5057753;28;20041;-67
2024/02/11 05:30:29;;;;;;;48.92;26.20;;;9.80;99.90;;;;;;5048820;28;20045;-68
2024/02/11 05:32:59;;;;;;;54.50;25.52;;;9.70;99.90;;;;;;5044176;28;20036;-67
2024/02/11 05:35:25;;;;;;;53.10;26.50;;;9.80;99.90;;;;;;5048729;28;20045;-68
2024/02/11 05:37:57;;;;;;;49.40;26.10;;;9.70;99.90;;;;;;5046266;28;20115;-68
2024/02/11 05:40:30;;;;;;;53.60;27.23;;;9.70;99.90;;;;;;5049155;28;20049;-68
2024/02/11 05:42:58;;;;;;;52.63;26.15;;;9.70;99.90;;;;;;5048176;28;20037;-68
2024/02/11 05:45:25;;;;;;;53.33;26.92;;;9.70;99.90;;;;;;5043458;28;20041;-68
2024/02/11 05:47:51;;;;;;;53.13;25.83;;;9.70;99.90;;;;;;5047967;28;20395;-68
2024/02/11 05:50:18;;;;;;;53.50;27.05;;;9.70;99.90;;;;;;5043142;28;20056;-68
2024/02/11 05:52:44;;;;;;;57.47;28.23;;;9.70;99.90;;;;;;5050992;28;20578;-68
2024/02/11 05:55:11;;;;;;;59.25;28.23;;;9.70;99.90;;;;;;5049643;28;20083;-68
2024/02/11 05:57:39;;;;;;;51.20;25.60;;;9.70;99.90;;;;;;5050145;28;20524;-68
2024/02/11 06:00:13;;;;;;;58.33;27.70;;;9.70;99.90;;;;;;5054571;28;20111;-68
2024/02/11 06:02:41;;;;;;;54.95;27.60;;;9.70;99.90;;;;;;5054526;28;20115;-68
2024/02/11 06:05:12;;;;;;;55.25;26.80;;;9.70;99.90;;;;;;5052128;28;20400;-68
2024/02/11 06:07:43;;;;;;;58.33;27.15;;;9.70;99.90;;;;;;5041365;28;20073;-68
2024/02/11 06:10:11;;;;;;;45.90;26.60;;;9.70;99.90;;;;;;5048763;28;20041;-68
2024/02/11 06:12:39;;;;;;;59.55;28.13;;;9.60;99.90;;;;;;5053342;28;20044;-67
2024/02/11 06:15:07;;;;;;;56.17;27.85;;;9.60;99.90;;;;;;5050776;28;20044;-67
2024/02/11 06:17:34;;;;;;;53.83;27.30;;;9.70;99.90;;;;;;5054187;28;20091;-68
2024/02/11 06:20:00;;;;;;;49.90;26.05;;;9.70;99.90;;;;;;5050429;28;20037;-68
2024/02/11 06:22:25;;;;;;;54.58;27.75;;;9.60;99.90;;;;;;5047735;28;20032;-68
2024/02/11 06:24:52;;;;;;;58.03;28.75;;;9.60;99.90;;;;;;5046496;28;20040;-68
2024/02/11 06:27:18;;;;;;;54.42;27.48;;;9.60;99.90;;;;;;5052548;28;20098;-68
2024/02/11 06:29:44;;;;;;;53.30;27.55;;;9.60;99.90;;;;;;5059961;28;20708;-68
2024/02/11 06:32:10;;;;;;;51.70;27.25;;;9.60;99.90;;;;;;5047931;28;20094;-68
2024/02/11 06:34:36;;;;;;;58.22;28.23;;;9.60;99.90;;;;;;5049826;28;20040;-68
2024/02/11 06:37:03;;;;;;;55.38;28.42;;;9.60;99.90;;;;;;5057011;28;20040;-68
2024/02/11 06:39:30;;;;;;;53.88;26.80;;;9.60;99.90;;;;;;5060950;28;20048;-67
2024/02/11 06:41:58;;;;;;;51.28;28.10;;;9.60;99.90;;;;;;5049932;28;20041;-67
2024/02/11 06:44:26;;;;;;;55.50;27.65;;;9.50;99.90;;;;;;5056087;28;20044;-67
2024/02/11 06:46:58;;;;;;;54.80;28.60;;;9.60;99.90;;;;;;5051741;28;20405;-68
2024/02/11 06:49:25;;;;;;;55.75;27.35;;;9.60;99.90;;;;;;5040716;28;20045;-64
2024/02/11 06:51:51;;;;;;;55.00;26.95;;;9.60;99.90;;;;;;5044713;28;20112;-68
2024/02/11 06:54:18;;;;;;;58.33;28.80;;;9.60;99.90;;;;;;5056975;28;20043;-68
2024/02/11 06:56:47;;;;;;;56.55;28.08;;;9.60;99.90;;;;;;5052726;28;20041;-68
2024/02/11 06:59:13;;;;;;;48.95;26.98;;;9.60;99.90;;;;;;5053430;28;20044;-68
2024/02/11 07:01:41;;;;;;;51.88;28.30;;;9.60;99.90;;;;;;5049417;28;20118;-68
2024/02/11 07:04:08;;;;;;;50.95;27.70;;;9.60;99.90;;;;;;5047788;28;20048;-67
2024/02/11 07:06:35;;;;;;;50.90;28.45;;;9.60;99.90;;;;;;5046106;28;20052;-67
2024/02/11 07:09:01;;;;;;;50.10;27.27;;;9.60;99.90;;;;;;5063866;28;20123;-65
2024/02/11 07:11:28;;;;;;;53.13;26.60;;;9.60;99.90;;;;;;5047758;28;20115;-68
2024/02/11 07:13:53;;;;;;;54.42;27.73;;;9.60;99.90;;;;;;5051968;28;20033;-68
2024/02/11 07:16:21;;;;;;;52.03;27.50;;;9.60;99.90;;;;;;5048878;28;20037;-68
2024/02/11 07:18:47;;;;;;;53.97;28.58;;;9.60;99.90;;;;;;5046929;28;20029;-68
2024/02/11 07:21:12;;;;;;;57.47;29.08;;;9.60;99.90;;;;;;5048452;28;20043;-67
2024/02/11 07:23:40;;;;;;;52.80;27.55;;;9.60;99.90;;;;;;5051286;28;20044;-66
2024/02/11 07:26:07;;;;;;;53.15;28.55;;;9.60;99.90;;;;;;5052256;28;20044;-67
2024/02/11 07:28:34;;;;;;;54.35;28.83;;;9.60;99.90;;;;;;5050568;28;20377;-67
2024/02/11 07:31:00;;;;;;;52.58;29.20;;;9.60;99.90;;;;;;5050998;28;20047;-68
2024/02/11 07:33:25;;;;;;;50.33;27.38;;;9.70;99.90;;;;;;5043075;28;20033;-68
2024/02/11 07:35:52;;;;;;;50.55;27.80;;;9.60;99.90;;;;;;5048789;28;21633;-67
2024/02/11 07:38:17;;;;;;;47.47;27.73;;;9.70;99.90;;;;;;5051499;28;20068;-68
2024/02/11 07:40:45;;;;;;;51.38;27.45;;;9.70;99.90;;;;;;5051302;28;20484;-67
2024/02/11 07:43:10;;;;;;;49.88;28.65;;;9.70;99.90;;;;;;5050464;28;20052;-66
2024/02/11 07:45:42;;;;;;;47.03;26.00;;;9.70;99.90;;;;;;5051280;28;20113;-68
2024/02/11 07:48:08;;;;;;;52.53;28.92;;;9.70;99.90;;;;;;5036124;28;20115;-68
2024/02/11 07:50:36;;;;;;;50.78;28.65;;;9.70;99.90;;;;;;5048967;28;20480;-67
2024/02/11 07:53:05;;;;;;;51.95;28.60;;;9.70;99.90;;;;;;5051674;28;20438;-68
2024/02/11 07:55:31;;;;;;;54.58;27.38;;;9.60;99.90;;;;;;5051249;28;20040;-65
2024/02/11 07:58:01;;;;;;;45.50;27.55;;;9.70;99.90;;;;;;5050567;28;20040;-66
2024/02/11 08:00:31;;;;;;;51.72;28.92;;;9.70;99.90;;;;;;5050574;28;20047;-68
2024/02/11 08:02:57;;;;;;;55.92;30.38;;;9.70;99.90;;;;;;5048852;28;20073;-68
2024/02/11 08:05:23;;;;;;;56.63;30.75;;;9.70;99.90;;;;;;5050829;28;20080;-67
2024/02/11 08:07:49;;;;;;;52.85;28.88;;;9.70;99.90;;;;;;5042028;28;20445;-67
2024/02/11 08:10:15;;;;;;;49.03;29.25;;;9.60;99.90;;;;;;5048436;28;20102;-67
2024/02/11 08:12:40;;;;;;;52.88;29.55;;;9.70;99.90;;;;;;5032673;28;20040;-68
2024/02/11 08:15:12;;;;;;;49.67;29.02;;;9.70;99.90;;;;;;5050906;28;20041;-68
2024/02/11 08:17:41;;;;;;;54.40;31.60;;;9.70;99.90;;;;;;5049393;28;20373;-64
2024/02/11 08:20:07;;;;;;;51.55;30.58;;;9.70;99.90;;;;;;5050449;28;20033;-68
2024/02/11 08:22:36;;;;;;;50.53;30.08;;;9.80;99.90;;;;;;5049305;28;20067;-67
2024/02/11 08:25:08;;;;;;;49.60;29.67;;;9.80;99.90;;;;;;5040234;28;20045;-66
2024/02/11 08:27:38;;;;;;;47.38;28.80;;;9.80;99.90;;;;;;5052424;28;20059;-68
2024/02/11 08:30:12;;;;;;;44.58;27.10;;;9.80;99.90;;;;;;5048836;28;20565;-68
2024/02/11 08:32:38;;;;;;;51.45;27.48;;;9.80;99.90;;;;;;5046850;28;20037;-68
2024/02/11 08:35:05;;;;;;;43.92;26.65;;;9.80;99.90;;;;;;5046021;28;20168;-68
2024/02/11 08:37:32;;;;;;;42.85;27.58;;;9.80;99.90;;;;;;5036054;28;20045;-68
2024/02/11 08:39:58;;;;;;;42.20;25.10;;;9.80;99.90;;;;;;5048884;28;20066;-67
2024/02/11 08:42:24;;;;;;;41.03;25.08;;;9.80;99.90;;;;;;5053583;28;20064;-68
2024/02/11 08:44:51;;;;;;;44.35;26.77;;;9.80;99.90;;;;;;5047905;28;20531;-66
2024/02/11 08:47:16;;;;;;;41.03;26.52;;;9.80;99.90;;;;;;5044270;28;20063;-64
2024/02/11 08:49:43;;;;;;;43.70;26.52;;;9.90;99.90;;;;;;5038860;28;20124;-68
2024/02/11 08:52:12;;;;;;;38.38;25.17;;;9.90;99.90;;;;;;5048263;28;20040;-68
2024/02/11 08:54:38;;;;;;;43.50;25.85;;;9.90;99.90;;;;;;5049139;28;20051;-68
2024/02/11 08:57:04;;;;;;;38.35;25.05;;;9.90;99.90;;;;;;5038184;28;20029;-68
2024/02/11 08:59:30;;;;;;;37.92;25.42;;;9.90;99.90;;;;;;5046762;28;20052;-67
2024/02/11 09:01:56;;;;;;;37.72;26.17;;;9.90;99.90;;;;;;5046133;28;20115;-66
2024/02/11 09:04:23;;;;;;;39.55;26.35;;;9.90;99.90;;;;;;5049954;28;20040;-67
2024/02/11 09:06:55;;;;;;;38.63;24.63;;;9.90;99.90;;;;;;5048763;28;20048;-65
2024/02/11 09:09:27;;;;;;;41.88;25.70;;;9.90;99.90;;;;;;5050178;28;20056;-67
2024/02/11 09:11:58;;;;;;;39.97;25.52;;;9.90;99.90;;;;;;5050241;28;20079;-68
2024/02/11 09:14:26;;;;;;;37.83;25.63;;;9.90;99.90;;;;;;5050052;28;20064;-65
2024/02/11 09:16:56;;;;;;;40.90;26.42;;;9.90;99.90;;;;;;5045759;28;20045;-65
2024/02/11 09:19:24;;;;;;;41.47;26.20;;;9.90;99.90;;;;;;5055277;28;20091;-67
2024/02/11 09:21:49;;;;;;;44.10;26.50;;;9.90;99.90;;;;;;5048249;28;20041;-65
2024/02/11 09:24:16;;;;;;;43.28;27.92;;;9.90;99.90;;;;;;5048479;28;20048;-68
2024/02/11 09:26:41;;;;;;;44.28;26.98;;;9.90;99.90;;;;;;5049486;28;20045;-67
2024/02/11 09:29:07;;;;;;;44.13;27.27;;;9.90;99.90;;;;;;5046636;28;20183;-68
2024/02/11 09:31:34;;;;;;;45.00;26.50;;;9.90;99.90;;;;;;5047701;28;20081;-68
2024/02/11 09:34:00;;;;;;;50.20;28.60;;;9.80;99.90;;;;;;5045412;28;20460;-67
2024/02/11 09:36:26;;;;;;;45.17;26.40;;;9.80;99.90;;;;;;5047581;28;20073;-66
2024/02/11 09:38:51;;;;;;;45.28;27.13;;;9.80;99.90;;;;;;5040890;28;20036;-67
2024/02/11 09:41:17;;;;;;;49.85;28.02;;;9.80;99.90;;;;;;5052058;28;20113;-68
2024/02/11 09:43:45;;;;;;;46.75;27.75;;;9.80;99.90;;;;;;5052492;28;20045;-68
2024/02/11 09:46:15;;;;;;;39.80;24.98;;;9.80;99.90;;;;;;5055471;28;20049;-67
2024/02/11 09:48:44;;;;;;;44.13;25.42;;;9.80;99.90;;;;;;5046277;28;20062;-68
2024/02/11 09:51:12;;;;;;;39.08;22.45;;;9.80;99.90;;;;;;5052727;28;20167;-68
2024/02/11 09:53:39;;;;;;;26.42;17.83;;;9.80;99.90;;;;;;5049877;28;20116;-69
2024/02/11 09:56:06;;;;;;;19.88;13.65;;;9.80;99.90;;;;;;5051578;28;20045;-68
2024/02/11 09:58:32;;;;;;;19.60;12.10;;;9.70;99.90;;;;;;5049050;28;20056;-67
2024/02/11 10:00:58;;;;;;;12.32;9.45;;;9.70;99.90;;;;;;5054404;28;20037;-68
2024/02/11 10:03:27;;;;;;;14.60;9.10;;;9.60;99.90;;;;;;5055314;28;20059;-68
2024/02/11 10:05:58;;;;;;;9.73;6.90;;;9.60;99.90;;;;;;5052716;28;20048;-68
2024/02/11 10:08:24;;;;;;;8.98;6.05;;;9.50;99.90;;;;;;5048220;28;20500;-67
2024/02/11 10:10:50;;;;;;;5.88;4.15;;;9.40;99.90;;;;;;5052384;28;20040;-68
2024/02/11 10:13:19;;;;;;;6.57;3.97;;;9.30;99.90;;;;;;5049763;28;22114;-68
2024/02/11 10:15:48;;;;;;;6.57;3.80;;;9.30;99.90;;;;;;5051456;28;20500;-68
2024/02/11 10:18:18;;;;;;;6.65;3.65;;;9.20;99.90;;;;;;5046766;28;20041;-67
2024/02/11 10:20:47;;;;;;;5.88;3.45;;;9.10;99.90;;;;;;5050326;28;20048;-68
2024/02/11 10:23:15;;;;;;;5.15;3.13;;;9.00;99.90;;;;;;5054213;28;20044;-66
2024/02/11 10:25:50;;;;;;;6.47;3.50;;;9.00;99.90;;;;;;5053072;28;20053;-68
2024/02/11 10:28:16;;;;;;;6.18;3.88;;;8.90;99.90;;;;;;5050994;28;20519;-68
2024/02/11 10:30:42;;;;;;;7.35;3.83;;;8.90;99.90;;;;;;5050054;28;20037;-68
2024/02/11 10:33:10;;;;;;;5.80;3.80;;;8.80;99.90;;;;;;5024999;28;20081;-68
2024/02/11 10:35:35;;;;;;;8.30;3.97;;;8.90;99.90;;;;;;5051223;28;20041;-68
2024/02/11 10:38:05;;;;;;;4.93;3.50;;;8.80;99.90;;;;;;5048253;28;20045;-68
2024/02/11 10:40:34;;;;;;;8.07;3.22;;;8.80;99.90;;;;;;5047670;28;20033;-68
2024/02/11 10:43:03;;;;;;;6.00;2.90;;;8.80;99.90;;;;;;5054098;28;20162;-68
2024/02/11 10:45:29;;;;;;;4.60;3.00;;;8.80;99.90;;;;;;5055825;28;20110;-68
2024/02/11 10:47:55;;;;;;;8.10;2.80;;;8.80;99.90;;;;;;5049693;28;20053;-68
2024/02/11 10:50:21;;;;;;;6.43;2.47;;;8.70;99.90;;;;;;5045363;28;20076;-68
2024/02/11 10:52:49;;;;;;;6.22;2.47;;;8.70;99.90;;;;;;5049485;28;20118;-68
2024/02/11 10:55:18;;;;;;;6.93;2.42;;;8.70;99.90;;;;;;5049369;28;20130;-66
2024/02/11 10:57:54;;;;;;;7.57;2.60;;;8.70;99.90;;;;;;5045823;28;20037;-67
2024/02/11 11:00:21;;;;;;;6.43;2.55;;;8.70;99.90;;;;;;5047210;28;20037;-68
2024/02/11 11:02:50;;;;;;;7.75;2.10;;;8.80;99.90;;;;;;5048501;28;20041;-67
2024/02/11 11:05:20;;;;;;;8.50;2.45;;;8.80;99.90;;;;;;5049125;28;20028;-68
2024/02/11 11:07:50;;;;;;;7.55;2.13;;;8.80;99.90;;;;;;5056354;28;20048;-68
2024/02/11 11:10:16;;;;;;;7.50;2.25;;;8.80;99.90;;;;;;5054257;28;20075;-68
2024/02/11 11:12:55;;;;;;;5.25;2.17;;;8.80;99.90;;;;;;5046457;28;20392;-68
2024/02/11 11:15:22;;;;;;;7.75;2.30;;;8.90;99.90;;;;;;5019761;28;20077;-68
2024/02/11 11:17:48;;;;;;;4.57;2.22;;;8.90;99.90;;;;;;5060978;28;20033;-68
2024/02/11 11:20:14;;;;;;;7.65;2.58;;;8.90;99.90;;;;;;5047392;28;20128;-68
2024/02/11 11:22:40;;;;;;;5.53;2.42;;;8.90;99.90;;;;;;5053078;28;20480;-68
2024/02/11 11:25:15;;;;;;;8.85;2.38;;;8.90;99.90;;;;;;5045889;28;20036;-68
2024/02/11 11:27:40;;;;;;;9.30;2.92;;;8.90;99.90;;;;;;5046332;28;20497;-68
2024/02/11 11:30:14;;;;;;;7.30;2.85;;;9.00;99.90;;;;;;5045656;28;20041;-67
2024/02/11 11:32:45;;;;;;;6.10;2.88;;;9.00;99.90;;;;;;5046208;28;20394;-65
2024/02/11 11:35:17;;;;;;;7.40;3.90;;;9.00;99.90;;;;;;5049172;28;20044;-68
2024/02/11 11:37:43;;;;;;;9.45;4.85;;;9.10;99.90;;;;;;5043285;28;20033;-68
2024/02/11 11:40:10;;;;;;;8.60;5.35;;;9.10;99.90;;;;;;5055774;28;20395;-67
2024/02/11 11:42:36;;;;;;;10.80;6.15;;;9.10;99.90;;;;;;5046322;28;20290;-68
2024/02/11 11:45:09;;;;;;;12.85;6.40;;;9.10;99.90;;;;;;5049530;28;20551;-65
2024/02/11 11:47:36;;;;;;;14.65;7.80;;;9.10;99.90;;;;;;5045520;28;20489;-68
2024/02/11 11:50:06;;;;;;;18.48;8.27;;;9.10;99.90;;;;;;5044009;28;20064;-68
2024/02/11 11:52:35;;;;;;;14.82;8.18;;;9.10;99.90;;;;;;5043878;28;20044;-65
2024/02/11 11:55:04;;;;;;;15.77;8.80;;;9.10;99.90;;;;;;5043204;28;20048;-68
2024/02/11 11:57:31;;;;;;;17.98;10.60;;;9.20;99.90;;;;;;5039207;28;20492;-65
2024/02/11 11:59:58;;;;;;;17.27;11.57;;;9.20;99.90;;;;;;5050740;28;20033;-68
2024/02/11 12:02:29;;;;;;;20.08;12.13;;;9.20;99.90;;;;;;5047530;28;20112;-65
2024/02/11 12:04:55;;;;;;;21.75;11.88;;;9.30;99.90;;;;;;5051338;28;20094;-67
2024/02/11 12:07:22;;;;;;;18.45;12.55;;;9.30;99.90;;;;;;5049779;28;20036;-67
2024/02/11 12:09:51;;;;;;;19.75;13.20;;;9.40;99.90;;;;;;5050781;28;20040;-67
2024/02/11 12:12:18;;;;;;;22.73;12.77;;;9.50;99.90;;;;;;5043525;28;20056;-68
2024/02/11 12:14:44;;;;;;;18.58;12.77;;;9.60;99.90;;;;;;5049780;28;20444;-66
2024/02/11 12:17:11;;;;;;;22.05;13.75;;;9.60;99.90;;;;;;5049440;28;20420;-66
2024/02/11 12:19:40;;;;;;;23.02;13.90;;;9.90;99.90;;;;;;5048140;28;20396;-67
2024/02/11 12:22:09;;;;;;;25.52;14.52;;;9.70;99.90;;;;;;5050752;28;20561;-67
2024/02/11 12:24:44;;;;;;;23.98;14.15;;;9.80;99.90;;;;;;5054183;28;20037;-68
2024/02/11 12:27:17;;;;;;;22.73;14.30;;;9.80;99.90;;;;;;5045142;28;20131;-67
2024/02/11 12:29:56;;;;;;;26.15;14.95;;;9.80;99.90;;;;;;5051569;28;20041;-65
2024/02/11 12:32:22;;;;;;;20.88;13.57;;;9.80;99.90;;;;;;5054899;28;20076;-67
2024/02/11 12:34:47;;;;;;;21.27;14.35;;;9.80;99.90;;;;;;5045122;28;20079;-66
2024/02/11 12:37:14;;;;;;;21.27;13.90;;;9.80;99.90;;;;;;5055313;28;20037;-66
2024/02/11 12:39:40;;;;;;;24.95;14.25;;;9.80;99.90;;;;;;5042874;28;20052;-67
2024/02/11 12:42:07;;;;;;;23.95;14.65;;;9.90;99.90;;;;;;5047306;28;20076;-67